createdAt,value
2024-01-18T00:00:26.572Z,-6.65
2024-01-18T00:01:29.020Z,-6.60
2024-01-18T00:02:31.110Z,-6.55
2024-01-18T00:03:33.721Z,-6.55
2024-01-18T00:04:39.765Z,-6.59
2024-01-18T00:05:42.089Z,-6.59
2024-01-18T00:06:44.451Z,-6.61
2024-01-18T00:07:46.651Z,-6.59
2024-01-18T00:08:48.665Z,-6.53
2024-01-18T00:09:50.897Z,-6.59
2024-01-18T00:10:53.124Z,-6.52
2024-01-18T00:11:55.466Z,-6.47
2024-01-18T00:12:58.701Z,-6.50
2024-01-18T00:14:00.750Z,-6.50
2024-01-18T00:15:03.439Z,-6.43
2024-01-18T00:16:06.047Z,-6.45
2024-01-18T00:17:08.062Z,-6.39
2024-01-18T00:18:10.366Z,-6.43
2024-01-18T00:19:12.558Z,-6.31
2024-01-18T00:20:16.279Z,-6.35
2024-01-18T00:21:18.356Z,-6.40
2024-01-18T00:22:22.178Z,-6.30
2024-01-18T00:23:24.220Z,-6.30
2024-01-18T00:24:26.742Z,-6.34
2024-01-18T00:25:28.779Z,-6.27
2024-01-18T00:26:31.101Z,-6.30
2024-01-18T00:27:33.569Z,-6.28
2024-01-18T00:28:35.813Z,-6.27
2024-01-18T00:29:38.127Z,-6.25
2024-01-18T00:30:40.773Z,-6.26
2024-01-18T00:31:42.985Z,-6.23
2024-01-18T00:32:45.451Z,-6.32
2024-01-18T00:33:47.459Z,-6.29
2024-01-18T00:34:49.688Z,-6.29
2024-01-18T00:35:51.776Z,-6.26
2024-01-18T00:36:54.239Z,-6.28
2024-01-18T00:37:56.358Z,-6.37
2024-01-18T00:38:59.738Z,-6.35
2024-01-18T00:40:02.199Z,-6.32
2024-01-18T00:41:05.084Z,-6.29
2024-01-18T00:42:07.287Z,-6.26
2024-01-18T00:43:09.413Z,-6.27
2024-01-18T00:44:11.498Z,-6.27
2024-01-18T00:45:16.102Z,-6.31
2024-01-18T00:46:18.804Z,-6.30
2024-01-18T00:47:21.336Z,-6.31
2024-01-18T00:48:23.527Z,-6.27
2024-01-18T00:49:28.798Z,-6.45
2024-01-18T00:50:32.045Z,-6.33
2024-01-18T00:51:34.143Z,-6.35
2024-01-18T00:52:38.349Z,-6.29
2024-01-18T00:53:40.310Z,-6.34
2024-01-18T00:54:42.258Z,-6.33
2024-01-18T00:55:44.363Z,-6.33
2024-01-18T00:56:47.195Z,-6.30
2024-01-18T00:57:49.222Z,-6.22
2024-01-18T00:58:52.854Z,-6.29
2024-01-18T00:59:55.100Z,-6.32
2024-01-18T01:00:57.371Z,-6.40
2024-01-18T01:01:59.483Z,-6.32
2024-01-18T01:03:01.515Z,-6.27
2024-01-18T01:04:05.282Z,-6.16
2024-01-18T01:05:08.669Z,-6.37
2024-01-18T01:06:13.040Z,-6.26
2024-01-18T01:07:15.156Z,-6.22
2024-01-18T01:08:17.178Z,-6.22
2024-01-18T01:09:20.406Z,-6.31
2024-01-18T01:10:22.921Z,-6.26
2024-01-18T01:11:24.894Z,-6.22
2024-01-18T01:12:26.987Z,-6.28
2024-01-18T01:13:29.142Z,-6.20
2024-01-18T01:14:31.138Z,-6.19
2024-01-18T01:15:33.124Z,-6.16
2024-01-18T01:16:35.260Z,-6.22
2024-01-18T01:17:37.361Z,-6.24
2024-01-18T01:18:40.520Z,-6.33
2024-01-18T01:19:42.907Z,-6.25
2024-01-18T01:20:45.204Z,-6.20
2024-01-18T01:21:47.765Z,-6.13
2024-01-18T01:22:49.678Z,-6.13
2024-01-18T01:23:51.904Z,-6.14
2024-01-18T01:24:53.809Z,-6.15
2024-01-18T01:25:56.684Z,-6.18
2024-01-18T01:26:58.921Z,-6.16
2024-01-18T01:28:00.975Z,-6.12
2024-01-18T01:29:05.022Z,-6.11
2024-01-18T01:30:11.792Z,-6.07
2024-01-18T01:31:14.355Z,-6.02
2024-01-18T01:32:17.047Z,-6.03
2024-01-18T01:33:19.415Z,-5.99
2024-01-18T01:34:21.789Z,-6.00
2024-01-18T01:35:27.804Z,-6.06
2024-01-18T01:36:30.926Z,-6.02
2024-01-18T01:37:34.292Z,-6.03
2024-01-18T01:38:36.183Z,-6.02
2024-01-18T01:39:38.283Z,-6.00
2024-01-18T01:40:40.789Z,-6.03
2024-01-18T01:41:43.327Z,-5.96
2024-01-18T01:42:45.356Z,-5.97
2024-01-18T01:44:00.934Z,-5.93
2024-01-18T01:45:04.700Z,-5.89
2024-01-18T01:46:06.898Z,-5.84
2024-01-18T01:47:08.900Z,-5.82
2024-01-18T01:48:11.192Z,-5.85
2024-01-18T01:49:14.180Z,-5.87
2024-01-18T01:50:17.393Z,-5.87
2024-01-18T01:51:20.849Z,-5.88
2024-01-18T01:52:24.920Z,-5.94
2024-01-18T01:53:26.980Z,-5.85
2024-01-18T01:54:30.808Z,-5.86
2024-01-18T01:55:33.676Z,-5.86
2024-01-18T01:56:37.165Z,-5.83
2024-01-18T01:57:39.699Z,-5.79
2024-01-18T01:58:42.454Z,-5.85
2024-01-18T01:59:44.914Z,-5.88
2024-01-18T02:00:47.667Z,-5.79
2024-01-18T02:01:50.991Z,-5.87
2024-01-18T02:02:53.540Z,-5.80
2024-01-18T02:03:56.176Z,-5.89
2024-01-18T02:04:58.246Z,-5.78
2024-01-18T02:06:02.112Z,-5.80
2024-01-18T02:07:05.434Z,-5.75
2024-01-18T02:08:07.502Z,-5.75
2024-01-18T02:09:11.897Z,-5.78
2024-01-18T02:10:17.745Z,-5.79
2024-01-18T02:11:20.919Z,-5.81
2024-01-18T02:12:24.681Z,-5.66
2024-01-18T02:13:30.047Z,-5.74
2024-01-18T02:14:32.286Z,-5.74
2024-01-18T02:15:35.827Z,-5.67
2024-01-18T02:16:38.097Z,-5.69
2024-01-18T02:17:40.164Z,-5.68
2024-01-18T02:18:42.225Z,-5.73
2024-01-18T02:19:44.414Z,-5.74
2024-01-18T02:20:47.300Z,-5.73
2024-01-18T02:21:49.716Z,-5.74
2024-01-18T02:22:53.809Z,-5.69
2024-01-18T02:24:02.046Z,-5.68
2024-01-18T02:25:25.161Z,-5.65
2024-01-18T02:26:27.747Z,-5.59
2024-01-18T02:27:29.717Z,-5.65
2024-01-18T02:28:31.905Z,-5.62
2024-01-18T02:29:33.931Z,-5.59
2024-01-18T02:30:36.452Z,-5.55
2024-01-18T02:31:39.909Z,-5.51
2024-01-18T02:32:41.969Z,-5.50
2024-01-18T02:33:45.409Z,-5.47
2024-01-18T02:34:47.976Z,-5.41
2024-01-18T02:35:51.220Z,-5.38
2024-01-18T02:36:56.161Z,-5.36
2024-01-18T02:37:58.218Z,-5.37
2024-01-18T02:39:00.972Z,-5.32
2024-01-18T02:40:03.449Z,-5.34
2024-01-18T02:41:06.671Z,-5.31
2024-01-18T02:42:08.752Z,-5.26
2024-01-18T02:43:10.908Z,-5.30
2024-01-18T02:44:14.696Z,-5.24
2024-01-18T02:45:16.976Z,-5.19
2024-01-18T02:46:20.025Z,-5.20
2024-01-18T02:47:23.037Z,-5.18
2024-01-18T02:48:25.633Z,-5.18
2024-01-18T02:49:27.742Z,-5.22
2024-01-18T02:50:29.828Z,-5.20
2024-01-18T02:51:32.695Z,-5.14
2024-01-18T02:52:34.903Z,-5.15
2024-01-18T02:53:37.360Z,-5.13
2024-01-18T02:54:39.431Z,-5.14
2024-01-18T02:55:41.384Z,-5.13
2024-01-18T02:56:43.523Z,-5.08
2024-01-18T02:57:45.779Z,-5.07
2024-01-18T02:58:48.364Z,-5.10
2024-01-18T02:59:50.410Z,-5.06
2024-01-18T03:00:53.774Z,-5.00
2024-01-18T03:01:57.057Z,-4.98
2024-01-18T03:02:59.090Z,-4.94
2024-01-18T03:04:01.502Z,-4.95
2024-01-18T03:05:04.512Z,-4.92
2024-01-18T03:06:06.988Z,-4.90
2024-01-18T03:07:10.173Z,-4.84
2024-01-18T03:08:12.423Z,-4.84
2024-01-18T03:09:14.586Z,-4.82
2024-01-18T03:10:17.735Z,-4.81
2024-01-18T03:11:20.067Z,-4.76
2024-01-18T03:12:22.101Z,-4.74
2024-01-18T03:13:24.093Z,-4.72
2024-01-18T03:14:26.024Z,-4.64
2024-01-18T03:15:28.140Z,-4.66
2024-01-18T03:16:32.182Z,-4.63
2024-01-18T03:17:34.337Z,-4.64
2024-01-18T03:18:36.756Z,-4.58
2024-01-18T03:19:38.868Z,-4.52
2024-01-18T03:20:40.989Z,-4.50
2024-01-18T03:21:43.009Z,-4.46
2024-01-18T03:22:46.189Z,-4.42
2024-01-18T03:23:48.320Z,-4.38
2024-01-18T03:24:50.258Z,-4.35
2024-01-18T03:25:53.414Z,-4.31
2024-01-18T03:26:55.472Z,-4.27
2024-01-18T03:27:58.760Z,-4.17
2024-01-18T03:29:00.692Z,-4.14
2024-01-18T03:30:03.879Z,-4.09
2024-01-18T03:31:09.769Z,-4.03
2024-01-18T03:32:11.874Z,-4.06
2024-01-18T03:33:14.242Z,-3.99
2024-01-18T03:34:16.524Z,-3.96
2024-01-18T03:35:20.744Z,-3.93
2024-01-18T03:36:23.901Z,-3.85
2024-01-18T03:37:26.116Z,-3.78
2024-01-18T03:38:28.119Z,-3.78
2024-01-18T03:39:35.405Z,-3.76
2024-01-18T03:40:38.302Z,-3.75
2024-01-18T03:41:40.355Z,-3.66
2024-01-18T03:42:42.624Z,-3.66
2024-01-18T03:43:44.838Z,-3.59
2024-01-18T03:44:46.879Z,-3.57
2024-01-18T03:45:48.856Z,-3.52
2024-01-18T03:46:51.973Z,-3.71
2024-01-18T03:47:54.228Z,-3.71
2024-01-18T03:48:56.375Z,-3.72
2024-01-18T03:49:59.798Z,-3.65
2024-01-18T03:51:03.322Z,-3.64
2024-01-18T03:52:05.849Z,-3.54
2024-01-18T03:53:07.869Z,-3.57
2024-01-18T03:54:09.877Z,-3.42
2024-01-18T03:55:12.294Z,-3.38
2024-01-18T03:56:15.614Z,-3.29
2024-01-18T03:57:17.543Z,-3.28
2024-01-18T03:58:19.750Z,-3.28
2024-01-18T03:59:21.874Z,-3.25
2024-01-18T04:00:25.036Z,-3.13
2024-01-18T04:01:35.416Z,-3.12
2024-01-18T04:02:36.316Z,-3.13
2024-01-18T04:03:38.305Z,-3.10
2024-01-18T04:04:40.392Z,-3.09
2024-01-18T04:05:42.295Z,-3.06
2024-01-18T04:06:44.686Z,-3.04
2024-01-18T04:07:46.716Z,-3.03
2024-01-18T04:08:48.786Z,-2.99
2024-01-18T04:09:50.833Z,-2.98
2024-01-18T04:10:53.021Z,-2.95
2024-01-18T04:11:54.912Z,-2.91
2024-01-18T04:12:57.911Z,-2.92
2024-01-18T04:14:02.109Z,-2.85
2024-01-18T04:15:06.833Z,-2.84
2024-01-18T04:16:09.380Z,-2.77
2024-01-18T04:17:11.692Z,-2.80
2024-01-18T04:18:14.028Z,-2.81
2024-01-18T04:19:16.343Z,-2.76
2024-01-18T04:20:19.028Z,-2.66
2024-01-18T04:21:22.204Z,-2.65
2024-01-18T04:22:24.480Z,-2.69
2024-01-18T04:23:27.777Z,-2.67
2024-01-18T04:24:31.070Z,-2.68
2024-01-18T04:25:33.154Z,-2.62
2024-01-18T04:26:35.469Z,-2.57
2024-01-18T04:27:37.527Z,-2.57
2024-01-18T04:28:39.783Z,-2.56
2024-01-18T04:29:41.755Z,-2.52
2024-01-18T04:30:43.823Z,-2.51
2024-01-18T04:31:47.886Z,-2.59
2024-01-18T04:32:51.010Z,-2.46
2024-01-18T04:33:55.692Z,-2.57
2024-01-18T04:34:58.059Z,-2.53
2024-01-18T04:36:00.275Z,-2.44
2024-01-18T04:37:02.382Z,-2.43
2024-01-18T04:38:04.646Z,-2.43
2024-01-18T04:39:06.696Z,-2.31
2024-01-18T04:40:10.407Z,-2.38
2024-01-18T04:41:12.442Z,-2.38
2024-01-18T04:42:15.312Z,-2.36
2024-01-18T04:43:18.029Z,-2.30
2024-01-18T04:44:21.178Z,-2.25
2024-01-18T04:45:23.230Z,-2.22
2024-01-18T04:46:26.262Z,-2.17
2024-01-18T04:47:28.805Z,-2.10
2024-01-18T04:48:33.592Z,-2.02
2024-01-18T04:49:35.899Z,-2.05
2024-01-18T04:50:38.294Z,-2.05
2024-01-18T04:51:40.474Z,-2.01
2024-01-18T04:52:42.718Z,-2.06
2024-01-18T04:53:44.731Z,-1.99
2024-01-18T04:54:47.722Z,-1.96
2024-01-18T04:55:50.882Z,-1.94
2024-01-18T04:56:53.237Z,-1.94
2024-01-18T04:57:55.998Z,-1.94
2024-01-18T04:58:58.388Z,-1.85
2024-01-18T05:00:00.751Z,-1.88
2024-01-18T05:01:03.269Z,-1.87
2024-01-18T05:02:05.229Z,-1.75
2024-01-18T05:03:07.173Z,-1.73
2024-01-18T05:04:11.639Z,-1.72
2024-01-18T05:05:14.525Z,-1.68
2024-01-18T05:06:17.454Z,-1.74
2024-01-18T05:07:19.753Z,-1.71
2024-01-18T05:08:21.860Z,-1.68
2024-01-18T05:09:23.834Z,-1.76
2024-01-18T05:10:26.303Z,-1.79
2024-01-18T05:11:28.879Z,-1.78
2024-01-18T05:12:32.105Z,-1.78
2024-01-18T05:13:36.811Z,-1.76
2024-01-18T05:14:42.347Z,-1.62
2024-01-18T05:15:44.323Z,-1.60
2024-01-18T05:16:46.805Z,-1.55
2024-01-18T05:17:50.191Z,-1.55
2024-01-18T05:18:52.235Z,-1.50
2024-01-18T05:19:54.379Z,-1.49
2024-01-18T05:20:56.632Z,-1.51
2024-01-18T05:21:58.628Z,-1.52
2024-01-18T05:23:00.996Z,-1.53
2024-01-18T05:24:03.290Z,-1.48
2024-01-18T05:25:05.862Z,-1.41
2024-01-18T05:26:08.476Z,-1.42
2024-01-18T05:27:10.406Z,-1.39
2024-01-18T05:28:13.371Z,-1.34
2024-01-18T05:29:15.919Z,-1.37
2024-01-18T05:30:18.312Z,-1.34
2024-01-18T05:31:20.385Z,-1.30
2024-01-18T05:32:22.916Z,-1.27
2024-01-18T05:33:24.951Z,-1.27
2024-01-18T05:34:27.072Z,-1.23
2024-01-18T05:35:29.202Z,-1.21
2024-01-18T05:36:31.585Z,-1.21
2024-01-18T05:37:33.787Z,-1.15
2024-01-18T05:38:40.364Z,-1.14
2024-01-18T05:39:39.644Z,-1.09
2024-01-18T05:40:42.142Z,-1.07
2024-01-18T05:41:44.061Z,-1.05
2024-01-18T05:42:45.979Z,-1.05
2024-01-18T05:43:48.857Z,-1.04
2024-01-18T05:44:51.589Z,-1.06
2024-01-18T05:45:54.373Z,-1.00
2024-01-18T05:46:56.627Z,-0.97
2024-01-18T05:47:58.571Z,-0.93
2024-01-18T05:49:00.559Z,-0.89
2024-01-18T05:50:05.745Z,-0.87
2024-01-18T05:51:08.150Z,-0.80
2024-01-18T05:52:11.211Z,-0.83
2024-01-18T05:53:13.380Z,-0.79
2024-01-18T05:54:15.405Z,-0.78
2024-01-18T05:55:17.480Z,-0.71
2024-01-18T05:56:19.791Z,-0.72
2024-01-18T05:57:21.811Z,-0.74
2024-01-18T05:58:23.755Z,-0.64
2024-01-18T05:59:27.128Z,-0.60
2024-01-18T06:00:29.319Z,-0.56
2024-01-18T06:01:31.545Z,-0.63
2024-01-18T06:02:34.167Z,-0.49
2024-01-18T06:03:36.098Z,-0.50
2024-01-18T06:04:38.142Z,-0.51
2024-01-18T06:05:40.303Z,-0.45
2024-01-18T06:06:45.698Z,-0.39
2024-01-18T06:07:47.868Z,-0.38
2024-01-18T06:08:49.921Z,-0.34
2024-01-18T06:09:51.838Z,-0.39
2024-01-18T06:10:54.319Z,-0.40
2024-01-18T06:11:56.317Z,-0.30
2024-01-18T06:12:58.359Z,-0.30
2024-01-18T06:14:00.341Z,-0.25
2024-01-18T06:15:02.482Z,-0.27
2024-01-18T06:16:06.448Z,-0.21
2024-01-18T06:17:08.377Z,-0.14
2024-01-18T06:18:10.436Z,-0.12
2024-01-18T06:19:12.610Z,-0.16
2024-01-18T06:20:15.729Z,-0.16
2024-01-18T06:21:18.059Z,-0.11
2024-01-18T06:22:20.113Z,-0.07
2024-01-18T06:23:22.012Z,-0.09
2024-01-18T06:24:23.959Z,-0.07
2024-01-18T06:25:25.923Z,-0.03
2024-01-18T06:26:28.844Z,0.03
2024-01-18T06:27:30.976Z,0.10
2024-01-18T06:28:33.296Z,0.14
2024-01-18T06:29:35.416Z,0.25
2024-01-18T06:30:38.424Z,0.26
2024-01-18T06:31:40.476Z,0.32
2024-01-18T06:32:45.370Z,0.38
2024-01-18T06:33:47.701Z,0.54
2024-01-18T06:34:49.752Z,0.61
2024-01-18T06:35:51.905Z,0.61
2024-01-18T06:36:54.166Z,0.65
2024-01-18T06:37:56.056Z,0.73
2024-01-18T06:38:57.993Z,0.75
2024-01-18T06:39:59.895Z,0.82
2024-01-18T06:41:01.797Z,0.95
2024-01-18T06:42:08.205Z,1.01
2024-01-18T06:43:12.035Z,1.03
2024-01-18T06:44:14.230Z,1.07
2024-01-18T06:45:16.292Z,1.11
2024-01-18T06:46:20.367Z,1.20
2024-01-18T06:47:22.390Z,1.24
2024-01-18T06:48:25.588Z,1.31
2024-01-18T06:49:27.655Z,1.35
2024-01-18T06:50:30.311Z,1.44
2024-01-18T06:51:32.358Z,1.52
2024-01-18T06:52:34.393Z,1.52
2024-01-18T06:53:36.693Z,1.59
2024-01-18T06:54:38.859Z,1.68
2024-01-18T06:55:40.888Z,1.76
2024-01-18T06:56:45.648Z,1.81
2024-01-18T06:57:49.824Z,1.85
2024-01-18T06:58:52.992Z,1.88
2024-01-18T06:59:56.442Z,1.94
2024-01-18T07:00:58.950Z,2.01
2024-01-18T07:02:01.262Z,1.99
2024-01-18T07:03:09.142Z,2.18
2024-01-18T07:04:12.042Z,2.17
2024-01-18T07:05:15.861Z,2.19
2024-01-18T07:06:18.239Z,2.17
2024-01-18T07:07:20.302Z,2.24
2024-01-18T07:08:23.769Z,2.19
2024-01-18T07:09:25.825Z,2.28
2024-01-18T07:10:29.229Z,2.32
2024-01-18T07:11:31.128Z,2.30
2024-01-18T07:12:34.006Z,2.26
2024-01-18T07:13:36.023Z,2.37
2024-01-18T07:14:39.211Z,2.48
2024-01-18T07:15:42.192Z,2.48
2024-01-18T07:16:44.652Z,2.52
2024-01-18T07:17:47.089Z,2.53
2024-01-18T07:18:49.422Z,2.50
2024-01-18T07:19:57.786Z,2.53
2024-01-18T07:21:00.226Z,2.53
2024-01-18T07:22:04.387Z,2.50
2024-01-18T07:23:06.345Z,2.56
2024-01-18T07:24:10.321Z,2.65
2024-01-18T07:25:18.374Z,2.58
2024-01-18T07:26:19.837Z,2.68
2024-01-18T07:27:23.162Z,2.59
2024-01-18T07:28:27.676Z,2.64
2024-01-18T07:29:30.852Z,2.68
2024-01-18T07:30:36.316Z,2.65
2024-01-18T07:31:38.340Z,2.70
2024-01-18T07:32:41.102Z,2.73
2024-01-18T07:33:43.279Z,2.79
2024-01-18T07:34:45.979Z,2.83
2024-01-18T07:35:48.568Z,2.76
2024-01-18T07:36:50.706Z,2.76
2024-01-18T07:37:52.794Z,2.77
2024-01-18T07:38:54.710Z,2.78
2024-01-18T07:39:56.591Z,2.76
2024-01-18T07:40:59.639Z,2.78
2024-01-18T07:42:01.856Z,2.83
2024-01-18T07:43:04.231Z,2.80
2024-01-18T07:44:06.685Z,2.73
2024-01-18T07:45:09.145Z,2.85
2024-01-18T07:46:11.987Z,2.85
2024-01-18T07:47:15.907Z,2.82
2024-01-18T07:48:18.302Z,2.89
2024-01-18T07:49:23.851Z,2.83
2024-01-18T07:50:34.902Z,2.92
2024-01-18T07:51:31.335Z,2.84
2024-01-18T07:52:33.569Z,2.90
2024-01-18T07:53:35.528Z,2.94
2024-01-18T07:54:37.502Z,2.95
2024-01-18T07:55:41.884Z,2.88
2024-01-18T07:56:45.797Z,2.93
2024-01-18T07:57:47.743Z,2.97
2024-01-18T07:58:49.808Z,3.04
2024-01-18T07:59:51.725Z,3.08
2024-01-18T08:00:53.842Z,2.97
2024-01-18T08:01:56.176Z,2.95
2024-01-18T08:02:58.158Z,3.03
2024-01-18T08:04:00.284Z,3.02
2024-01-18T08:05:06.132Z,3.00
2024-01-18T08:06:11.551Z,3.08
2024-01-18T08:07:16.798Z,3.09
2024-01-18T08:08:18.824Z,3.11
2024-01-18T08:09:20.901Z,3.09
2024-01-18T08:10:23.951Z,3.18
2024-01-18T08:11:25.846Z,3.09
2024-01-18T08:12:27.837Z,3.13
2024-01-18T08:13:29.899Z,3.18
2024-01-18T08:14:31.832Z,3.17
2024-01-18T08:15:33.838Z,3.22
2024-01-18T08:16:36.147Z,3.13
2024-01-18T08:17:38.326Z,3.26
2024-01-18T08:18:40.580Z,3.18
2024-01-18T08:19:43.147Z,3.16
2024-01-18T08:20:45.619Z,3.23
2024-01-18T08:21:47.667Z,3.33
2024-01-18T08:22:49.779Z,3.37
2024-01-18T08:23:51.771Z,3.23
2024-01-18T08:24:53.784Z,3.23
2024-01-18T08:25:55.748Z,3.32
2024-01-18T08:26:58.052Z,3.19
2024-01-18T08:27:59.934Z,3.24
2024-01-18T08:29:02.004Z,3.22
2024-01-18T08:30:05.892Z,3.22
2024-01-18T08:31:07.860Z,3.27
2024-01-18T08:32:09.780Z,3.32
2024-01-18T08:33:11.726Z,3.30
2024-01-18T08:34:13.857Z,3.37
2024-01-18T08:35:15.768Z,3.45
2024-01-18T08:36:18.341Z,3.46
2024-01-18T08:37:20.580Z,3.60
2024-01-18T08:38:22.772Z,3.37
2024-01-18T08:39:24.883Z,3.62
2024-01-18T08:40:27.102Z,3.61
2024-01-18T08:41:29.123Z,3.55
2024-01-18T08:42:31.641Z,3.47
2024-01-18T08:43:33.783Z,3.42
2024-01-18T08:44:35.812Z,3.53
2024-01-18T08:45:38.124Z,3.57
2024-01-18T08:46:42.098Z,3.59
2024-01-18T08:47:44.159Z,3.58
2024-01-18T08:48:46.153Z,3.47
2024-01-18T08:49:49.055Z,3.59
2024-01-18T08:50:52.861Z,3.61
2024-01-18T08:51:55.578Z,3.54
2024-01-18T08:52:57.746Z,3.67
2024-01-18T08:53:59.860Z,3.68
2024-01-18T08:55:02.196Z,3.57
2024-01-18T08:56:04.658Z,3.68
2024-01-18T08:57:06.784Z,3.60
2024-01-18T08:58:08.946Z,3.60
2024-01-18T08:59:11.382Z,3.64
2024-01-18T09:00:15.391Z,3.60
2024-01-18T09:01:17.696Z,3.62
2024-01-18T09:02:23.814Z,3.73
2024-01-18T09:03:23.830Z,3.68
2024-01-18T09:04:26.317Z,3.75
2024-01-18T09:05:28.581Z,3.65
2024-01-18T09:06:31.151Z,3.64
2024-01-18T09:07:33.236Z,3.74
2024-01-18T09:08:35.394Z,3.69
2024-01-18T09:09:37.721Z,3.77
2024-01-18T09:10:40.091Z,3.77
2024-01-18T09:11:42.216Z,3.65
2024-01-18T09:12:44.289Z,3.74
2024-01-18T09:13:46.268Z,3.76
2024-01-18T09:14:48.398Z,3.86
2024-01-18T09:15:50.572Z,3.58
2024-01-18T09:16:52.712Z,3.80
2024-01-18T09:17:54.666Z,3.71
2024-01-18T09:19:06.332Z,3.74
2024-01-18T09:20:01.024Z,3.74
2024-01-18T09:21:03.732Z,3.78
2024-01-18T09:22:05.742Z,3.59
2024-01-18T09:23:13.094Z,3.73
2024-01-18T09:24:12.498Z,3.77
2024-01-18T09:25:14.633Z,3.71
2024-01-18T09:26:17.545Z,3.72
2024-01-18T09:27:19.565Z,3.63
2024-01-18T09:28:21.616Z,3.61
2024-01-18T09:29:23.707Z,3.65
2024-01-18T09:30:26.741Z,3.74
2024-01-18T09:31:38.089Z,3.62
2024-01-18T09:32:33.405Z,3.58
2024-01-18T09:33:36.503Z,3.58
2024-01-18T09:34:38.677Z,3.65
2024-01-18T09:35:40.884Z,3.61
2024-01-18T09:36:43.240Z,3.69
2024-01-18T09:37:49.311Z,3.60
2024-01-18T09:38:51.793Z,3.73
2024-01-18T09:39:54.514Z,3.64
2024-01-18T09:41:02.789Z,3.58
2024-01-18T09:42:08.582Z,3.68
2024-01-18T09:43:11.948Z,3.54
2024-01-18T09:44:15.136Z,3.66
2024-01-18T09:45:21.038Z,3.71
2024-01-18T09:46:24.075Z,3.78
2024-01-18T09:47:26.496Z,3.64
2024-01-18T09:48:28.539Z,3.73
2024-01-18T09:49:36.364Z,3.80
2024-01-18T09:50:42.308Z,3.68
2024-01-18T09:51:45.236Z,3.78
2024-01-18T09:52:47.791Z,3.75
2024-01-18T09:53:52.062Z,3.67
2024-01-18T09:54:54.119Z,3.79
2024-01-18T09:55:59.828Z,3.83
2024-01-18T09:57:02.000Z,3.81
2024-01-18T09:58:07.834Z,3.69
2024-01-18T09:59:15.471Z,3.79
2024-01-18T10:00:21.533Z,3.64
2024-01-18T10:01:24.348Z,3.77
2024-01-18T10:02:27.082Z,3.85
2024-01-18T10:03:29.135Z,3.88
2024-01-18T10:04:31.700Z,3.74
2024-01-18T10:05:34.110Z,3.80
2024-01-18T10:06:37.622Z,3.75
2024-01-18T10:07:40.812Z,3.78
2024-01-18T10:08:43.375Z,3.83
2024-01-18T10:09:45.378Z,3.79
2024-01-18T10:10:47.714Z,3.82
2024-01-18T10:11:49.862Z,3.88
2024-01-18T10:12:51.758Z,3.74
2024-01-18T10:13:55.938Z,3.78
2024-01-18T10:14:57.972Z,3.81
2024-01-18T10:15:59.910Z,3.75
2024-01-18T10:17:02.187Z,3.83
2024-01-18T10:18:07.347Z,3.85
2024-01-18T10:19:12.047Z,3.80
2024-01-18T10:20:14.790Z,3.86
2024-01-18T10:21:16.807Z,3.73
2024-01-18T10:22:20.690Z,3.70
2024-01-18T10:23:22.807Z,3.80
2024-01-18T10:24:24.806Z,3.85
2024-01-18T10:25:27.739Z,3.79
2024-01-18T10:26:31.819Z,3.91
2024-01-18T10:27:34.489Z,3.92
2024-01-18T10:28:36.942Z,3.91
2024-01-18T10:29:39.176Z,3.96
2024-01-18T10:30:42.423Z,3.94
2024-01-18T10:31:44.513Z,3.75
2024-01-18T10:32:46.969Z,3.71
2024-01-18T10:33:49.275Z,3.80
2024-01-18T10:34:51.382Z,3.92
2024-01-18T10:35:53.399Z,3.98
2024-01-18T10:36:58.328Z,3.95
2024-01-18T10:38:02.703Z,3.92
2024-01-18T10:39:17.739Z,3.98
2024-01-18T10:40:21.889Z,4.06
2024-01-18T10:41:24.010Z,3.92
2024-01-18T10:42:26.039Z,3.93
2024-01-18T10:43:32.835Z,4.00
2024-01-18T10:44:44.206Z,3.94
2024-01-18T10:45:46.528Z,3.93
2024-01-18T10:46:48.940Z,4.04
2024-01-18T10:47:51.505Z,4.08
2024-01-18T10:48:54.020Z,3.87
2024-01-18T10:49:58.653Z,3.96
2024-01-18T10:51:04.351Z,3.97
2024-01-18T10:52:07.378Z,4.03
2024-01-18T10:53:10.532Z,3.83
2024-01-18T10:54:22.018Z,3.79
2024-01-18T10:55:20.433Z,3.88
2024-01-18T10:56:22.908Z,3.85
2024-01-18T10:57:25.381Z,3.85
2024-01-18T10:58:27.662Z,3.91
2024-01-18T10:59:30.611Z,3.94
2024-01-18T11:00:33.110Z,4.03
2024-01-18T11:01:36.431Z,4.03
2024-01-18T11:02:38.382Z,4.11
2024-01-18T11:03:41.124Z,4.09
2024-01-18T11:04:46.404Z,4.17
2024-01-18T11:05:48.773Z,4.05
2024-01-18T11:06:51.227Z,4.05
2024-01-18T11:07:53.892Z,3.98
2024-01-18T11:08:57.379Z,4.06
2024-01-18T11:10:00.574Z,4.13
2024-01-18T11:11:04.729Z,3.95
2024-01-18T11:12:08.090Z,4.06
2024-01-18T11:13:11.166Z,3.92
2024-01-18T11:14:14.032Z,4.08
2024-01-18T11:15:17.206Z,4.03
2024-01-18T11:16:20.620Z,3.92
2024-01-18T11:17:23.275Z,3.92
2024-01-18T11:18:26.564Z,3.93
2024-01-18T11:19:45.640Z,3.94
2024-01-18T11:21:00.676Z,3.93
2024-01-18T11:22:04.080Z,3.87
2024-01-18T11:23:06.000Z,3.98
2024-01-18T11:24:09.357Z,4.09
2024-01-18T11:25:14.586Z,3.88
2024-01-18T11:26:20.960Z,3.88
2024-01-18T11:27:24.439Z,3.81
2024-01-18T11:28:27.815Z,3.86
2024-01-18T11:29:33.592Z,3.81
2024-01-18T11:30:37.535Z,3.89
2024-01-18T11:31:46.817Z,3.95
2024-01-18T11:32:48.869Z,3.98
2024-01-18T11:33:50.987Z,3.95
2024-01-18T11:35:08.523Z,3.97
2024-01-18T11:37:24.932Z,3.88
2024-01-18T11:38:29.029Z,3.89
2024-01-18T11:39:53.000Z,3.76
2024-01-18T11:40:58.459Z,3.86
2024-01-18T11:42:00.502Z,3.96
2024-01-18T11:43:02.580Z,4.00
2024-01-18T11:44:04.838Z,3.81
2024-01-18T11:45:16.048Z,3.88
2024-01-18T11:46:37.604Z,3.86
2024-01-18T11:47:40.152Z,3.89
2024-01-18T11:48:42.401Z,3.89
2024-01-18T11:49:44.894Z,3.99
2024-01-18T11:50:47.465Z,3.86
2024-01-18T11:51:51.298Z,3.89
2024-01-18T11:52:53.622Z,3.98
2024-01-18T11:53:59.649Z,4.05
2024-01-18T11:55:03.504Z,4.06
2024-01-18T11:56:08.646Z,4.08
2024-01-18T11:57:12.414Z,4.04
2024-01-18T11:58:17.214Z,3.97
2024-01-18T11:59:19.326Z,3.99
2024-01-18T12:00:22.644Z,4.07
2024-01-18T12:01:25.574Z,4.11
2024-01-18T12:02:28.199Z,4.11
2024-01-18T12:03:30.265Z,3.92
2024-01-18T12:04:32.354Z,3.97
2024-01-18T12:05:35.781Z,4.06
2024-01-18T12:06:38.209Z,4.09
2024-01-18T12:07:41.332Z,3.95
2024-01-18T12:08:44.905Z,3.96
2024-01-18T12:09:46.991Z,4.06
2024-01-18T12:10:50.195Z,4.02
2024-01-18T12:11:52.203Z,4.02
2024-01-18T12:12:55.709Z,4.06
2024-01-18T12:13:57.986Z,3.77
2024-01-18T12:15:00.196Z,3.93
2024-01-18T12:16:04.529Z,4.00
2024-01-18T12:17:08.055Z,4.10
2024-01-18T12:18:10.019Z,4.12
2024-01-18T12:19:12.122Z,4.10
2024-01-18T12:20:19.788Z,3.98
2024-01-18T12:21:22.022Z,3.99
2024-01-18T12:22:24.229Z,3.98
2024-01-18T12:23:26.157Z,3.96
2024-01-18T12:24:28.907Z,3.90
2024-01-18T12:25:32.517Z,3.94
2024-01-18T12:26:34.545Z,4.06
2024-01-18T12:27:37.103Z,3.94
2024-01-18T12:28:39.457Z,4.00
2024-01-18T12:29:42.201Z,3.94
2024-01-18T12:30:44.752Z,4.06
2024-01-18T12:31:47.311Z,4.03
2024-01-18T12:32:50.204Z,3.99
2024-01-18T12:33:54.062Z,4.10
2024-01-18T12:34:56.559Z,4.12
2024-01-18T12:35:59.436Z,4.13
2024-01-18T12:37:04.058Z,4.17
2024-01-18T12:38:06.226Z,4.21
2024-01-18T12:39:08.132Z,4.09
2024-01-18T12:40:11.571Z,4.09
2024-01-18T12:41:13.644Z,4.14
2024-01-18T12:42:18.444Z,4.12
2024-01-18T12:43:22.622Z,4.14
2024-01-18T12:44:24.956Z,4.12
2024-01-18T12:45:31.255Z,4.20
2024-01-18T12:46:36.304Z,4.08
2024-01-18T12:47:38.705Z,4.08
2024-01-18T12:48:41.428Z,4.20
2024-01-18T12:49:44.496Z,4.20
2024-01-18T12:50:47.417Z,4.26
2024-01-18T12:51:57.605Z,4.26
2024-01-18T12:53:03.480Z,4.27
2024-01-18T12:54:04.937Z,4.07
2024-01-18T12:55:07.373Z,4.15
2024-01-18T12:56:12.612Z,4.21
2024-01-18T12:57:14.879Z,4.20
2024-01-18T12:58:17.092Z,4.05
2024-01-18T12:59:19.256Z,4.15
2024-01-18T13:00:22.434Z,4.21
2024-01-18T13:01:30.700Z,4.17
2024-01-18T13:02:33.085Z,4.14
2024-01-18T13:03:35.303Z,4.20
2024-01-18T13:04:37.508Z,4.19
2024-01-18T13:05:44.952Z,4.08
2024-01-18T13:06:56.906Z,4.04
2024-01-18T13:07:55.503Z,4.09
2024-01-18T13:08:57.636Z,4.05
2024-01-18T13:10:00.228Z,4.17
2024-01-18T13:11:02.627Z,4.06
2024-01-18T13:12:06.109Z,4.14
2024-01-18T13:13:09.201Z,4.00
2024-01-18T13:14:11.242Z,3.96
2024-01-18T13:15:14.980Z,4.14
2024-01-18T13:16:17.494Z,4.14
2024-01-18T13:17:19.616Z,4.06
2024-01-18T13:18:21.868Z,4.12
2024-01-18T13:19:25.078Z,4.04
2024-01-18T13:20:28.043Z,4.14
2024-01-18T13:21:30.796Z,4.17
2024-01-18T13:22:33.017Z,4.02
2024-01-18T13:23:35.012Z,4.05
2024-01-18T13:24:37.149Z,4.12
2024-01-18T13:25:39.536Z,4.06
2024-01-18T13:26:42.243Z,4.00
2024-01-18T13:27:44.393Z,4.00
2024-01-18T13:28:46.373Z,4.08
2024-01-18T13:29:48.561Z,3.97
2024-01-18T13:30:50.700Z,4.12
2024-01-18T13:31:52.677Z,4.21
2024-01-18T13:32:54.876Z,4.23
2024-01-18T13:33:56.923Z,4.12
2024-01-18T13:34:58.946Z,4.15
2024-01-18T13:36:01.146Z,4.17
2024-01-18T13:37:03.604Z,4.16
2024-01-18T13:38:05.596Z,4.00
2024-01-18T13:39:07.713Z,4.04
2024-01-18T13:40:10.524Z,4.04
2024-01-18T13:41:12.814Z,4.01
2024-01-18T13:42:14.872Z,3.89
2024-01-18T13:43:16.962Z,3.96
2024-01-18T13:44:18.961Z,3.88
2024-01-18T13:45:20.928Z,3.88
2024-01-18T13:46:23.097Z,3.92
2024-01-18T13:47:25.121Z,3.87